Sibel J — 5IM270 — position and weather

sailwx.info

Track history (hours):
 
Tides and Currents Weather Stations Pressure Air Temp Water Temp Dewpoint Dewpoint Depression Visibility Wind Speed Wind Dir Waves Ship Positions

Sibel J

Last reported at 2018-Apr-11 04:59 UTC. Time now 2018-Apr-22 14:43 UTC.
Position N 45°09' E 029°40'.
Warning: this ship's position is 11 days out of date.

Length 100 m; draft 3 m.

Type: Cargo ship. MMSI: 677017000.

Date/timePositionNaut miles runAvg speedWind from/ knotsBaromVisibWave heightAir tempDewpointWater temp
2018-Apr-11 04:59N 45°09' E 029°40'2 3.6
2018-Apr-11 04:24N 45°10' E 029°43'2 5.4
2018-Apr-11 03:59N 45°09' E 029°45'2 3.0
2018-Apr-11 03:15N 45°08' E 029°48'1 1.8
2018-Apr-11 02:52N 45°08' E 029°49'0 0.0
2018-Apr-11 01:23N 45°08' E 029°49'18 5.1
2018-Apr-10 21:58N 44°51' E 029°45'234 8.4
2018-Apr-09 18:05N 40°59' E 028°60'0 5.2
2018-Apr-09 18:00N 40°59' E 028°60'5 4.4
2018-Apr-09 16:56N 40°54' E 029°00'3 6.6
2018-Apr-09 16:30N 40°51' E 029°01'4 6.4
2018-Apr-09 15:56N 40°47' E 028°60'3 6.6
2018-Apr-09 15:30N 40°45' E 028°58'4 0.6
2018-Apr-09 08:03N 40°49' E 028°59'8 1.6
2018-Apr-09 03:01N 40°57' E 028°56'0 6.1
2018-Apr-09 03:00N 40°57' E 028°56'8 6.6
2018-Apr-09 01:51N 40°51' E 028°50'  
2018-Apr-02 19:49N 43°43' E 029°33'32 8.0
2018-Apr-02 15:50N 44°15' E 029°38'  
Track history (hours):
 
Tides and Currents Weather Stations Pressure Air Temp Water Temp Dewpoint Dewpoint Depression Visibility Wind Speed Wind Dir Waves Ship Positions

Sibel J

Last reported at 2018-Apr-11 04:59 UTC. Time now 2018-Apr-22 14:43 UTC.
Position N 45°09' E 029°40'.
Warning: this ship's position is 11 days out of date.

Length 100 m; draft 3 m.

Type: Cargo ship. MMSI: 677017000.

Date/timePositionNaut miles runAvg speedWind from/ knotsBaromVisibWave heightAir tempDewpointWater temp
2018-Apr-11 04:59N 45°09' E 029°40'2 3.6
2018-Apr-11 04:24N 45°10' E 029°43'2 5.4
2018-Apr-11 03:59N 45°09' E 029°45'2 3.0
2018-Apr-11 03:15N 45°08' E 029°48'1 1.8
2018-Apr-11 02:52N 45°08' E 029°49'0 0.0
2018-Apr-11 01:23N 45°08' E 029°49'18 5.1
2018-Apr-10 21:58N 44°51' E 029°45'234 8.4
2018-Apr-09 18:05N 40°59' E 028°60'0 5.2
2018-Apr-09 18:00N 40°59' E 028°60'5 4.4
2018-Apr-09 16:56N 40°54' E 029°00'3 6.6
2018-Apr-09 16:30N 40°51' E 029°01'4 6.4
2018-Apr-09 15:56N 40°47' E 028°60'3 6.6
2018-Apr-09 15:30N 40°45' E 028°58'4 0.6
2018-Apr-09 08:03N 40°49' E 028°59'8 1.6
2018-Apr-09 03:01N 40°57' E 028°56'0 6.1
2018-Apr-09 03:00N 40°57' E 028°56'8 6.6
2018-Apr-09 01:51N 40°51' E 028°50'  
2018-Apr-02 19:49N 43°43' E 029°33'32 8.0
2018-Apr-02 15:50N 44°15' E 029°38'  

Dump ship's entire track history